Destinations Karlsruhe Baden-Baden Airport

Karlsruhe Baden-Baden Airport (EDSB / FKB)

Flights to Karlsruhe Baden-Baden Airport

Flight number From ETE Dispatch
SPY-102 EHGG Groningen Airport Eelde 01:25

Flights from Karlsruhe Baden-Baden Airport

Flight number To ETE Dispatch
SPY-103 EHGG Groningen Airport Eelde 01:25
About

Karlsruhe Baden-Baden Airport facts

Karlsruhe Baden-Baden Airport is located in Karlsruhe/Baden-Baden at an elevation of 124.4 meters or 408 feet.

Currently, Speedy Airlines serves 2 flights to and from Karlsruhe Baden-Baden Airport.

Detailed airport info

Route map

Weather

Current weather

METAR

METAR

Metar data retrieved Sunday, 21 July 2024 at 19:55 UTC

EDSB 211920Z 21006KT CAVOK 23/19 Q1011
Wind Temperature
6 kt 23c